sensor_id;sensor_type;location;lat;lon;timestamp;P1;durP1;ratioP1;P2;durP2;ratioP2
3873;SDS011;1952;50.872;6.692;2023-05-02T00:30:42;27.37;;;20.10;;
3873;SDS011;1952;50.872;6.692;2023-05-02T00:33:11;30.97;;;24.23;;
3873;SDS011;1952;50.872;6.692;2023-05-02T00:35:40;32.67;;;24.67;;
3873;SDS011;1952;50.872;6.692;2023-05-02T00:38:08;30.17;;;23.37;;
3873;SDS011;1952;50.872;6.692;2023-05-02T00:40:43;25.93;;;21.60;;
3873;SDS011;1952;50.872;6.692;2023-05-02T00:43:12;38.20;;;26.43;;
3873;SDS011;1952;50.872;6.692;2023-05-02T00:45:43;27.20;;;21.50;;
3873;SDS011;1952;50.872;6.692;2023-05-02T00:48:12;28.50;;;23.60;;
3873;SDS011;1952;50.872;6.692;2023-05-02T00:50:40;29.40;;;23.30;;
3873;SDS011;1952;50.872;6.692;2023-05-02T00:53:09;31.87;;;24.47;;
3873;SDS011;1952;50.872;6.692;2023-05-02T00:55:38;30.00;;;24.90;;
3873;SDS011;1952;50.872;6.692;2023-05-02T00:58:07;33.50;;;25.93;;
3873;SDS011;1952;50.872;6.692;2023-05-02T01:00:40;32.00;;;24.10;;
3873;SDS011;1952;50.872;6.692;2023-05-02T01:03:24;36.30;;;26.97;;
3873;SDS011;1952;50.872;6.692;2023-05-02T01:05:57;28.70;;;22.50;;
3873;SDS011;1952;50.872;6.692;2023-05-02T01:08:28;32.30;;;25.70;;
3873;SDS011;1952;50.872;6.692;2023-05-02T01:11:05;34.60;;;26.83;;
3873;SDS011;1952;50.872;6.692;2023-05-02T01:13:37;27.03;;;20.87;;
3873;SDS011;1952;50.872;6.692;2023-05-02T01:16:08;33.10;;;27.70;;
3873;SDS011;1952;50.872;6.692;2023-05-02T01:18:39;32.27;;;22.93;;
3873;SDS011;1952;50.872;6.692;2023-05-02T01:21:09;36.47;;;27.30;;
3873;SDS011;1952;50.872;6.692;2023-05-02T01:23:42;33.73;;;25.00;;
3873;SDS011;1952;50.872;6.692;2023-05-02T01:26:16;27.90;;;21.00;;
3873;SDS011;1952;50.872;6.692;2023-05-02T01:28:58;38.90;;;28.63;;
3873;SDS011;1952;50.872;6.692;2023-05-02T01:31:28;36.27;;;27.63;;
3873;SDS011;1952;50.872;6.692;2023-05-02T01:34:03;36.87;;;25.77;;
3873;SDS011;1952;50.872;6.692;2023-05-02T01:36:32;32.30;;;24.97;;
3873;SDS011;1952;50.872;6.692;2023-05-02T01:39:02;33.40;;;25.07;;
3873;SDS011;1952;50.872;6.692;2023-05-02T01:41:32;39.70;;;29.53;;
3873;SDS011;1952;50.872;6.692;2023-05-02T01:44:02;30.30;;;24.13;;
3873;SDS011;1952;50.872;6.692;2023-05-02T01:46:32;33.20;;;25.53;;
3873;SDS011;1952;50.872;6.692;2023-05-02T01:49:04;36.53;;;27.20;;
3873;SDS011;1952;50.872;6.692;2023-05-02T01:51:34;44.37;;;29.77;;
3873;SDS011;1952;50.872;6.692;2023-05-02T01:54:05;37.37;;;24.43;;
3873;SDS011;1952;50.872;6.692;2023-05-02T01:56:34;41.83;;;28.00;;
3873;SDS011;1952;50.872;6.692;2023-05-02T01:59:06;35.97;;;25.53;;
3873;SDS011;1952;50.872;6.692;2023-05-02T02:01:35;34.50;;;23.50;;
3873;SDS011;1952;50.872;6.692;2023-05-02T02:04:03;33.50;;;25.50;;
3873;SDS011;1952;50.872;6.692;2023-05-02T02:06:33;41.30;;;27.60;;
3873;SDS011;1952;50.872;6.692;2023-05-02T02:09:01;36.40;;;23.87;;
3873;SDS011;1952;50.872;6.692;2023-05-02T02:11:33;36.10;;;24.67;;
3873;SDS011;1952;50.872;6.692;2023-05-02T02:14:04;29.17;;;22.57;;
3873;SDS011;1952;50.872;6.692;2023-05-02T02:16:36;36.23;;;25.73;;
3873;SDS011;1952;50.872;6.692;2023-05-02T02:19:05;28.47;;;20.33;;
3873;SDS011;1952;50.872;6.692;2023-05-02T02:21:36;30.43;;;22.80;;
3873;SDS011;1952;50.872;6.692;2023-05-02T02:24:06;29.93;;;23.60;;
3873;SDS011;1952;50.872;6.692;2023-05-02T02:26:34;32.00;;;23.90;;
3873;SDS011;1952;50.872;6.692;2023-05-02T02:29:03;26.90;;;19.70;;
3873;SDS011;1952;50.872;6.692;2023-05-02T02:31:31;28.13;;;18.13;;
3873;SDS011;1952;50.872;6.692;2023-05-02T02:34:02;26.73;;;18.37;;
3873;SDS011;1952;50.872;6.692;2023-05-02T02:36:33;30.00;;;20.63;;
3873;SDS011;1952;50.872;6.692;2023-05-02T02:39:09;30.33;;;20.90;;
3873;SDS011;1952;50.872;6.692;2023-05-02T02:41:41;31.80;;;20.60;;
3873;SDS011;1952;50.872;6.692;2023-05-02T02:44:18;27.80;;;20.40;;
3873;SDS011;1952;50.872;6.692;2023-05-02T02:47:00;30.63;;;20.90;;
3873;SDS011;1952;50.872;6.692;2023-05-02T02:49:41;31.97;;;21.77;;
3873;SDS011;1952;50.872;6.692;2023-05-02T02:52:13;32.03;;;22.10;;
3873;SDS011;1952;50.872;6.692;2023-05-02T02:54:45;33.10;;;22.83;;
3873;SDS011;1952;50.872;6.692;2023-05-02T02:57:16;30.80;;;21.60;;
3873;SDS011;1952;50.872;6.692;2023-05-02T02:59:50;27.80;;;22.67;;
3873;SDS011;1952;50.872;6.692;2023-05-02T03:02:20;28.53;;;19.70;;
3873;SDS011;1952;50.872;6.692;2023-05-02T03:04:54;27.27;;;20.43;;
3873;SDS011;1952;50.872;6.692;2023-05-02T03:07:23;28.07;;;17.80;;
3873;SDS011;1952;50.872;6.692;2023-05-02T03:09:54;38.50;;;24.83;;
3873;SDS011;1952;50.872;6.692;2023-05-02T03:12:23;34.93;;;23.53;;
3873;SDS011;1952;50.872;6.692;2023-05-02T03:14:51;30.77;;;20.87;;
3873;SDS011;1952;50.872;6.692;2023-05-02T03:17:19;35.80;;;23.57;;
3873;SDS011;1952;50.872;6.692;2023-05-02T03:19:50;35.53;;;25.00;;
3873;SDS011;1952;50.872;6.692;2023-05-02T03:22:20;31.93;;;21.20;;
3873;SDS011;1952;50.872;6.692;2023-05-02T03:24:48;39.00;;;23.80;;
3873;SDS011;1952;50.872;6.692;2023-05-02T03:27:16;34.83;;;23.00;;
3873;SDS011;1952;50.872;6.692;2023-05-02T03:29:45;29.60;;;20.90;;
3873;SDS011;1952;50.872;6.692;2023-05-02T03:32:14;38.57;;;24.20;;
3873;SDS011;1952;50.872;6.692;2023-05-02T03:34:42;42.90;;;28.97;;
3873;SDS011;1952;50.872;6.692;2023-05-02T03:37:10;36.70;;;23.83;;
3873;SDS011;1952;50.872;6.692;2023-05-02T03:39:40;37.03;;;25.13;;
3873;SDS011;1952;50.872;6.692;2023-05-02T03:42:08;31.97;;;24.30;;
3873;SDS011;1952;50.872;6.692;2023-05-02T03:44:36;36.20;;;23.60;;
3873;SDS011;1952;50.872;6.692;2023-05-02T03:47:04;28.40;;;21.00;;
3873;SDS011;1952;50.872;6.692;2023-05-02T03:49:33;39.30;;;26.53;;
3873;SDS011;1952;50.872;6.692;2023-05-02T03:52:01;36.07;;;26.73;;
3873;SDS011;1952;50.872;6.692;2023-05-02T03:54:30;33.47;;;22.40;;
3873;SDS011;1952;50.872;6.692;2023-05-02T03:57:00;33.67;;;23.40;;
3873;SDS011;1952;50.872;6.692;2023-05-02T03:59:31;39.47;;;24.97;;
3873;SDS011;1952;50.872;6.692;2023-05-02T04:01:59;43.50;;;29.27;;
3873;SDS011;1952;50.872;6.692;2023-05-02T04:04:27;38.60;;;25.57;;
3873;SDS011;1952;50.872;6.692;2023-05-02T04:06:56;33.47;;;23.10;;
3873;SDS011;1952;50.872;6.692;2023-05-02T04:09:24;36.53;;;24.20;;
3873;SDS011;1952;50.872;6.692;2023-05-02T04:11:52;37.53;;;26.17;;
3873;SDS011;1952;50.872;6.692;2023-05-02T04:14:22;32.37;;;21.77;;
3873;SDS011;1952;50.872;6.692;2023-05-02T04:16:50;41.23;;;25.07;;
3873;SDS011;1952;50.872;6.692;2023-05-02T04:19:19;34.77;;;23.90;;
3873;SDS011;1952;50.872;6.692;2023-05-02T04:21:47;30.73;;;23.70;;
3873;SDS011;1952;50.872;6.692;2023-05-02T04:24:15;39.87;;;24.40;;
3873;SDS011;1952;50.872;6.692;2023-05-02T04:26:43;30.97;;;21.17;;
3873;SDS011;1952;50.872;6.692;2023-05-02T04:29:12;26.10;;;19.13;;
3873;SDS011;1952;50.872;6.692;2023-05-02T04:31:47;33.17;;;21.10;;
3873;SDS011;1952;50.872;6.692;2023-05-02T04:34:16;29.93;;;19.50;;
3873;SDS011;1952;50.872;6.692;2023-05-02T04:36:44;33.67;;;22.00;;
3873;SDS011;1952;50.872;6.692;2023-05-02T04:39:12;28.10;;;18.37;;
3873;SDS011;1952;50.872;6.692;2023-05-02T04:41:41;25.30;;;19.33;;
3873;SDS011;1952;50.872;6.692;2023-05-02T04:44:09;34.77;;;21.33;;
3873;SDS011;1952;50.872;6.692;2023-05-02T04:46:37;29.43;;;18.30;;
3873;SDS011;1952;50.872;6.692;2023-05-02T04:49:07;22.70;;;17.27;;
3873;SDS011;1952;50.872;6.692;2023-05-02T04:51:36;26.63;;;17.53;;
3873;SDS011;1952;50.872;6.692;2023-05-02T04:54:05;27.70;;;19.00;;
3873;SDS011;1952;50.872;6.692;2023-05-02T04:56:33;28.47;;;18.40;;
3873;SDS011;1952;50.872;6.692;2023-05-02T04:59:02;19.87;;;14.50;;
3873;SDS011;1952;50.872;6.692;2023-05-02T05:01:30;30.93;;;18.10;;
3873;SDS011;1952;50.872;6.692;2023-05-02T05:03:59;30.03;;;17.80;;
3873;SDS011;1952;50.872;6.692;2023-05-02T05:06:29;24.83;;;18.00;;
3873;SDS011;1952;50.872;6.692;2023-05-02T05:08:58;22.03;;;15.90;;
3873;SDS011;1952;50.872;6.692;2023-05-02T05:11:27;22.43;;;15.57;;
3873;SDS011;1952;50.872;6.692;2023-05-02T05:13:55;20.83;;;15.87;;
3873;SDS011;1952;50.872;6.692;2023-05-02T05:16:24;22.73;;;16.13;;
3873;SDS011;1952;50.872;6.692;2023-05-02T05:18:53;27.00;;;15.90;;
3873;SDS011;1952;50.872;6.692;2023-05-02T05:21:21;22.40;;;14.97;;
3873;SDS011;1952;50.872;6.692;2023-05-02T05:23:51;25.80;;;18.23;;
3873;SDS011;1952;50.872;6.692;2023-05-02T05:26:20;21.27;;;15.90;;
3873;SDS011;1952;50.872;6.692;2023-05-02T05:28:49;21.17;;;15.50;;
3873;SDS011;1952;50.872;6.692;2023-05-02T05:31:17;22.10;;;13.43;;
3873;SDS011;1952;50.872;6.692;2023-05-02T05:33:46;25.30;;;17.67;;
3873;SDS011;1952;50.872;6.692;2023-05-02T05:36:14;25.70;;;15.33;;
3873;SDS011;1952;50.872;6.692;2023-05-02T05:38:43;26.93;;;17.83;;
3873;SDS011;1952;50.872;6.692;2023-05-02T05:41:13;24.00;;;14.53;;
3873;SDS011;1952;50.872;6.692;2023-05-02T05:43:42;24.13;;;15.10;;
3873;SDS011;1952;50.872;6.692;2023-05-02T05:46:11;22.53;;;15.50;;
3873;SDS011;1952;50.872;6.692;2023-05-02T05:48:42;19.47;;;14.40;;
3873;SDS011;1952;50.872;6.692;2023-05-02T05:51:14;23.57;;;16.23;;
3873;SDS011;1952;50.872;6.692;2023-05-02T06:32:08;15.97;;;11.73;;
3873;SDS011;1952;50.872;6.692;2023-05-02T06:34:40;18.03;;;11.80;;
3873;SDS011;1952;50.872;6.692;2023-05-02T06:37:09;21.00;;;12.80;;
3873;SDS011;1952;50.872;6.692;2023-05-02T06:40:08;16.70;;;10.87;;
3873;SDS011;1952;50.872;6.692;2023-05-02T06:42:59;19.43;;;12.60;;
3873;SDS011;1952;50.872;6.692;2023-05-02T06:45:29;15.97;;;11.63;;
3873;SDS011;1952;50.872;6.692;2023-05-02T06:48:17;18.43;;;11.40;;
3873;SDS011;1952;50.872;6.692;2023-05-02T06:54:09;15.60;;;12.17;;
3873;SDS011;1952;50.872;6.692;2023-05-02T06:56:45;22.40;;;11.53;;
3873;SDS011;1952;50.872;6.692;2023-05-02T06:59:16;13.47;;;10.60;;
3873;SDS011;1952;50.872;6.692;2023-05-02T07:01:59;15.43;;;9.50;;
3873;SDS011;1952;50.872;6.692;2023-05-02T07:04:55;14.93;;;11.43;;
3873;SDS011;1952;50.872;6.692;2023-05-02T07:07:25;17.23;;;10.43;;
3873;SDS011;1952;50.872;6.692;2023-05-02T07:09:55;10.73;;;8.03;;
3873;SDS011;1952;50.872;6.692;2023-05-02T07:12:26;14.20;;;9.93;;
3873;SDS011;1952;50.872;6.692;2023-05-02T07:17:37;14.03;;;9.27;;
3873;SDS011;1952;50.872;6.692;2023-05-02T07:20:38;10.50;;;8.50;;
3873;SDS011;1952;50.872;6.692;2023-05-02T07:23:16;12.00;;;8.57;;
3873;SDS011;1952;50.872;6.692;2023-05-02T07:25:46;13.93;;;9.57;;
3873;SDS011;1952;50.872;6.692;2023-05-02T07:28:25;11.03;;;8.77;;
3873;SDS011;1952;50.872;6.692;2023-05-02T07:30:54;11.30;;;9.23;;
3873;SDS011;1952;50.872;6.692;2023-05-02T07:33:25;12.90;;;9.17;;
3873;SDS011;1952;50.872;6.692;2023-05-02T07:36:23;8.80;;;7.87;;
3873;SDS011;1952;50.872;6.692;2023-05-02T07:39:19;13.83;;;10.10;;
3873;SDS011;1952;50.872;6.692;2023-05-02T07:41:51;12.03;;;8.73;;
3873;SDS011;1952;50.872;6.692;2023-05-02T07:44:20;10.13;;;8.20;;
3873;SDS011;1952;50.872;6.692;2023-05-02T07:46:58;9.03;;;7.60;;
3873;SDS011;1952;50.872;6.692;2023-05-02T07:52:28;8.13;;;6.30;;
3873;SDS011;1952;50.872;6.692;2023-05-02T07:55:06;8.90;;;6.53;;
3873;SDS011;1952;50.872;6.692;2023-05-02T07:57:42;8.83;;;5.70;;
3873;SDS011;1952;50.872;6.692;2023-05-02T08:00:13;8.33;;;5.60;;
3873;SDS011;1952;50.872;6.692;2023-05-02T08:02:42;6.83;;;5.27;;
3873;SDS011;1952;50.872;6.692;2023-05-02T08:05:12;6.13;;;5.10;;
3873;SDS011;1952;50.872;6.692;2023-05-02T08:07:51;8.70;;;5.20;;
3873;SDS011;1952;50.872;6.692;2023-05-02T08:10:20;6.53;;;4.33;;
3873;SDS011;1952;50.872;6.692;2023-05-02T08:12:53;7.30;;;4.13;;
3873;SDS011;1952;50.872;6.692;2023-05-02T08:15:36;5.17;;;4.67;;
3873;SDS011;1952;50.872;6.692;2023-05-02T08:18:22;7.20;;;3.70;;
3873;SDS011;1952;50.872;6.692;2023-05-02T08:20:52;6.20;;;3.70;;
3873;SDS011;1952;50.872;6.692;2023-05-02T08:23:23;6.57;;;3.93;;
3873;SDS011;1952;50.872;6.692;2023-05-02T08:26:01;4.43;;;4.03;;
3873;SDS011;1952;50.872;6.692;2023-05-02T08:28:35;3.93;;;3.40;;
3873;SDS011;1952;50.872;6.692;2023-05-02T08:31:03;6.10;;;3.90;;
3873;SDS011;1952;50.872;6.692;2023-05-02T08:36:11;4.20;;;3.80;;
3873;SDS011;1952;50.872;6.692;2023-05-02T08:38:43;6.50;;;3.90;;
3873;SDS011;1952;50.872;6.692;2023-05-02T08:41:15;6.33;;;4.17;;
3873;SDS011;1952;50.872;6.692;2023-05-02T08:43:47;5.17;;;3.83;;
3873;SDS011;1952;50.872;6.692;2023-05-02T08:46:16;5.17;;;3.70;;
3873;SDS011;1952;50.872;6.692;2023-05-02T08:48:58;5.63;;;3.60;;
3873;SDS011;1952;50.872;6.692;2023-05-02T08:51:31;4.97;;;4.10;;
3873;SDS011;1952;50.872;6.692;2023-05-02T08:54:19;4.83;;;3.80;;
3873;SDS011;1952;50.872;6.692;2023-05-02T08:56:51;4.77;;;4.20;;
3873;SDS011;1952;50.872;6.692;2023-05-02T08:59:28;3.60;;;3.00;;
3873;SDS011;1952;50.872;6.692;2023-05-02T09:02:29;8.93;;;4.20;;
3873;SDS011;1952;50.872;6.692;2023-05-02T09:05:19;5.80;;;3.20;;
3873;SDS011;1952;50.872;6.692;2023-05-02T09:07:53;4.63;;;3.43;;
3873;SDS011;1952;50.872;6.692;2023-05-02T09:10:24;5.47;;;3.57;;
3873;SDS011;1952;50.872;6.692;2023-05-02T09:12:52;3.40;;;2.80;;
3873;SDS011;1952;50.872;6.692;2023-05-02T09:15:32;4.57;;;3.40;;
3873;SDS011;1952;50.872;6.692;2023-05-02T09:18:03;6.30;;;3.90;;
3873;SDS011;1952;50.872;6.692;2023-05-02T09:20:39;5.80;;;3.63;;
3873;SDS011;1952;50.872;6.692;2023-05-02T09:23:13;4.20;;;3.30;;
3873;SDS011;1952;50.872;6.692;2023-05-02T09:25:48;5.17;;;3.60;;
3873;SDS011;1952;50.872;6.692;2023-05-02T09:28:47;4.40;;;3.67;;
3873;SDS011;1952;50.872;6.692;2023-05-02T09:31:49;6.77;;;3.23;;
3873;SDS011;1952;50.872;6.692;2023-05-02T09:34:23;6.87;;;5.40;;
3873;SDS011;1952;50.872;6.692;2023-05-02T09:36:55;8.77;;;5.10;;
3873;SDS011;1952;50.872;6.692;2023-05-02T09:39:27;6.43;;;3.93;;
3873;SDS011;1952;50.872;6.692;2023-05-02T09:42:01;9.20;;;4.80;;
3873;SDS011;1952;50.872;6.692;2023-05-02T09:59:02;5.80;;;4.50;;
3873;SDS011;1952;50.872;6.692;2023-05-02T10:01:40;8.60;;;5.50;;
3873;SDS011;1952;50.872;6.692;2023-05-02T10:04:12;8.60;;;4.40;;
3873;SDS011;1952;50.872;6.692;2023-05-02T10:06:44;4.30;;;3.73;;
3873;SDS011;1952;50.872;6.692;2023-05-02T10:09:13;5.57;;;4.40;;
3873;SDS011;1952;50.872;6.692;2023-05-02T10:11:49;4.80;;;3.83;;
3873;SDS011;1952;50.872;6.692;2023-05-02T10:14:20;4.67;;;3.90;;
3873;SDS011;1952;50.872;6.692;2023-05-02T10:16:54;7.20;;;3.50;;
3873;SDS011;1952;50.872;6.692;2023-05-02T10:19:26;7.70;;;3.80;;
3873;SDS011;1952;50.872;6.692;2023-05-02T10:21:59;11.37;;;5.10;;
3873;SDS011;1952;50.872;6.692;2023-05-02T10:24:31;4.50;;;3.40;;
3873;SDS011;1952;50.872;6.692;2023-05-02T10:27:02;3.63;;;3.33;;
3873;SDS011;1952;50.872;6.692;2023-05-02T10:29:37;8.20;;;5.50;;
3873;SDS011;1952;50.872;6.692;2023-05-02T10:32:16;6.10;;;4.97;;
3873;SDS011;1952;50.872;6.692;2023-05-02T10:34:45;5.43;;;4.20;;
3873;SDS011;1952;50.872;6.692;2023-05-02T10:37:18;7.23;;;4.70;;
3873;SDS011;1952;50.872;6.692;2023-05-02T10:39:48;7.03;;;4.77;;
3873;SDS011;1952;50.872;6.692;2023-05-02T10:42:19;9.30;;;5.00;;
3873;SDS011;1952;50.872;6.692;2023-05-02T10:44:49;6.43;;;5.03;;
3873;SDS011;1952;50.872;6.692;2023-05-02T10:47:19;14.50;;;5.77;;
3873;SDS011;1952;50.872;6.692;2023-05-02T10:49:53;5.90;;;4.20;;
3873;SDS011;1952;50.872;6.692;2023-05-02T10:52:35;7.10;;;4.37;;
3873;SDS011;1952;50.872;6.692;2023-05-02T10:55:17;10.47;;;4.57;;
3873;SDS011;1952;50.872;6.692;2023-05-02T11:00:42;9.50;;;5.20;;
3873;SDS011;1952;50.872;6.692;2023-05-02T11:03:12;7.60;;;3.53;;
3873;SDS011;1952;50.872;6.692;2023-05-02T11:08:32;9.37;;;3.80;;
3873;SDS011;1952;50.872;6.692;2023-05-02T11:13:47;8.63;;;4.03;;
3873;SDS011;1952;50.872;6.692;2023-05-02T11:16:23;10.83;;;5.10;;
3873;SDS011;1952;50.872;6.692;2023-05-02T11:18:59;6.00;;;4.80;;
3873;SDS011;1952;50.872;6.692;2023-05-02T11:21:29;6.47;;;4.90;;
3873;SDS011;1952;50.872;6.692;2023-05-02T11:26:48;5.90;;;5.00;;
3873;SDS011;1952;50.872;6.692;2023-05-02T11:32:05;6.53;;;3.93;;
3873;SDS011;1952;50.872;6.692;2023-05-02T11:34:41;5.07;;;4.27;;
3873;SDS011;1952;50.872;6.692;2023-05-02T11:37:14;4.00;;;3.53;;
3873;SDS011;1952;50.872;6.692;2023-05-02T11:39:44;9.40;;;4.13;;
3873;SDS011;1952;50.872;6.692;2023-05-02T11:42:29;6.97;;;3.43;;
3873;SDS011;1952;50.872;6.692;2023-05-02T11:47:44;8.90;;;4.50;;
3873;SDS011;1952;50.872;6.692;2023-05-02T11:50:13;4.70;;;4.20;;
3873;SDS011;1952;50.872;6.692;2023-05-02T11:52:43;8.60;;;4.03;;
3873;SDS011;1952;50.872;6.692;2023-05-02T11:55:14;5.23;;;4.43;;
3873;SDS011;1952;50.872;6.692;2023-05-02T12:35:21;5.07;;;4.57;;
3873;SDS011;1952;50.872;6.692;2023-05-02T12:37:49;5.13;;;4.63;;
3873;SDS011;1952;50.872;6.692;2023-05-02T12:40:19;4.47;;;4.07;;
3873;SDS011;1952;50.872;6.692;2023-05-02T12:43:02;8.00;;;4.40;;
3873;SDS011;1952;50.872;6.692;2023-05-02T12:45:32;4.70;;;4.13;;
3873;SDS011;1952;50.872;6.692;2023-05-02T12:48:01;5.20;;;4.40;;
3873;SDS011;1952;50.872;6.692;2023-05-02T12:50:37;6.63;;;5.03;;
3873;SDS011;1952;50.872;6.692;2023-05-02T12:53:07;5.30;;;4.80;;
3873;SDS011;1952;50.872;6.692;2023-05-02T12:55:37;5.67;;;4.77;;
3873;SDS011;1952;50.872;6.692;2023-05-02T12:58:07;6.50;;;4.80;;
3873;SDS011;1952;50.872;6.692;2023-05-02T13:00:38;8.63;;;6.07;;
3873;SDS011;1952;50.872;6.692;2023-05-02T13:03:07;8.93;;;5.13;;
3873;SDS011;1952;50.872;6.692;2023-05-02T13:05:37;7.67;;;5.77;;
3873;SDS011;1952;50.872;6.692;2023-05-02T13:08:06;6.53;;;5.03;;
3873;SDS011;1952;50.872;6.692;2023-05-02T13:10:36;8.37;;;4.87;;
3873;SDS011;1952;50.872;6.692;2023-05-02T13:13:04;6.20;;;4.20;;
3873;SDS011;1952;50.872;6.692;2023-05-02T13:15:34;5.27;;;4.73;;
3873;SDS011;1952;50.872;6.692;2023-05-02T13:18:04;7.10;;;4.77;;
3873;SDS011;1952;50.872;6.692;2023-05-02T13:20:34;6.20;;;4.13;;
3873;SDS011;1952;50.872;6.692;2023-05-02T13:23:10;6.50;;;4.30;;
3873;SDS011;1952;50.872;6.692;2023-05-02T13:25:43;4.37;;;3.93;;
3873;SDS011;1952;50.872;6.692;2023-05-02T13:28:19;6.27;;;4.30;;
3873;SDS011;1952;50.872;6.692;2023-05-02T13:30:48;8.20;;;5.03;;
3873;SDS011;1952;50.872;6.692;2023-05-02T13:33:17;7.00;;;5.27;;
3873;SDS011;1952;50.872;6.692;2023-05-02T13:35:46;5.80;;;4.10;;
3873;SDS011;1952;50.872;6.692;2023-05-02T13:38:16;7.90;;;3.77;;
3873;SDS011;1952;50.872;6.692;2023-05-02T13:40:44;5.73;;;4.50;;
3873;SDS011;1952;50.872;6.692;2023-05-02T13:43:13;6.80;;;4.87;;
3873;SDS011;1952;50.872;6.692;2023-05-02T13:45:41;4.33;;;3.97;;
3873;SDS011;1952;50.872;6.692;2023-05-02T13:48:12;5.57;;;4.13;;
3873;SDS011;1952;50.872;6.692;2023-05-02T13:50:41;4.83;;;4.23;;
3873;SDS011;1952;50.872;6.692;2023-05-02T13:53:10;4.90;;;3.87;;
3873;SDS011;1952;50.872;6.692;2023-05-02T13:55:40;6.17;;;4.27;;
3873;SDS011;1952;50.872;6.692;2023-05-02T13:58:09;6.17;;;5.57;;
3873;SDS011;1952;50.872;6.692;2023-05-02T14:00:37;8.03;;;5.13;;
3873;SDS011;1952;50.872;6.692;2023-05-02T14:03:06;7.53;;;4.03;;
3873;SDS011;1952;50.872;6.692;2023-05-02T14:05:36;6.47;;;4.60;;
3873;SDS011;1952;50.872;6.692;2023-05-02T14:08:09;6.93;;;4.30;;
3873;SDS011;1952;50.872;6.692;2023-05-02T14:10:37;9.90;;;5.87;;
3873;SDS011;1952;50.872;6.692;2023-05-02T14:13:09;4.57;;;3.87;;
3873;SDS011;1952;50.872;6.692;2023-05-02T14:15:38;8.40;;;5.23;;
3873;SDS011;1952;50.872;6.692;2023-05-02T14:18:06;14.23;;;4.97;;
3873;SDS011;1952;50.872;6.692;2023-05-02T14:20:38;9.83;;;4.80;;
3873;SDS011;1952;50.872;6.692;2023-05-02T14:23:07;4.83;;;3.80;;
3873;SDS011;1952;50.872;6.692;2023-05-02T14:25:35;6.13;;;5.00;;
3873;SDS011;1952;50.872;6.692;2023-05-02T14:28:04;4.60;;;3.93;;
3873;SDS011;1952;50.872;6.692;2023-05-02T14:30:33;5.10;;;4.60;;
3873;SDS011;1952;50.872;6.692;2023-05-02T14:33:02;6.93;;;4.70;;
3873;SDS011;1952;50.872;6.692;2023-05-02T14:35:30;6.13;;;4.50;;
3873;SDS011;1952;50.872;6.692;2023-05-02T14:37:58;5.27;;;4.57;;
3873;SDS011;1952;50.872;6.692;2023-05-02T14:40:29;8.83;;;4.60;;
3873;SDS011;1952;50.872;6.692;2023-05-02T14:43:01;9.40;;;5.40;;
3873;SDS011;1952;50.872;6.692;2023-05-02T14:45:41;5.87;;;4.30;;
3873;SDS011;1952;50.872;6.692;2023-05-02T14:48:09;7.53;;;3.83;;
3873;SDS011;1952;50.872;6.692;2023-05-02T14:50:39;8.33;;;4.97;;
3873;SDS011;1952;50.872;6.692;2023-05-02T14:53:07;6.50;;;4.23;;
3873;SDS011;1952;50.872;6.692;2023-05-02T14:55:39;7.37;;;4.23;;
3873;SDS011;1952;50.872;6.692;2023-05-02T14:58:08;6.80;;;4.60;;
3873;SDS011;1952;50.872;6.692;2023-05-02T15:00:37;5.73;;;4.77;;
3873;SDS011;1952;50.872;6.692;2023-05-02T15:03:07;4.73;;;4.30;;
3873;SDS011;1952;50.872;6.692;2023-05-02T15:05:36;7.53;;;4.67;;
3873;SDS011;1952;50.872;6.692;2023-05-02T15:08:04;4.70;;;4.30;;
3873;SDS011;1952;50.872;6.692;2023-05-02T15:10:35;6.50;;;4.23;;
3873;SDS011;1952;50.872;6.692;2023-05-02T15:13:03;7.13;;;5.37;;
3873;SDS011;1952;50.872;6.692;2023-05-02T15:15:32;8.97;;;5.77;;
3873;SDS011;1952;50.872;6.692;2023-05-02T15:18:02;4.67;;;4.20;;
3873;SDS011;1952;50.872;6.692;2023-05-02T15:20:32;5.63;;;5.03;;
3873;SDS011;1952;50.872;6.692;2023-05-02T15:23:01;6.37;;;5.27;;
3873;SDS011;1952;50.872;6.692;2023-05-02T15:25:30;5.60;;;5.00;;
3873;SDS011;1952;50.872;6.692;2023-05-02T15:27:58;5.90;;;5.30;;
3873;SDS011;1952;50.872;6.692;2023-05-02T15:30:27;5.00;;;4.60;;
3873;SDS011;1952;50.872;6.692;2023-05-02T15:32:57;9.27;;;4.70;;
3873;SDS011;1952;50.872;6.692;2023-05-02T15:35:27;4.83;;;4.20;;
3873;SDS011;1952;50.872;6.692;2023-05-02T15:37:58;6.00;;;5.30;;
3873;SDS011;1952;50.872;6.692;2023-05-02T15:40:26;11.47;;;5.37;;
3873;SDS011;1952;50.872;6.692;2023-05-02T15:42:59;6.33;;;4.40;;
3873;SDS011;1952;50.872;6.692;2023-05-02T15:45:29;6.03;;;5.43;;
3873;SDS011;1952;50.872;6.692;2023-05-02T15:48:00;5.07;;;4.40;;
3873;SDS011;1952;50.872;6.692;2023-05-02T15:50:29;6.17;;;5.43;;
3873;SDS011;1952;50.872;6.692;2023-05-02T15:53:00;7.10;;;5.60;;
3873;SDS011;1952;50.872;6.692;2023-05-02T15:55:28;6.40;;;5.77;;
3873;SDS011;1952;50.872;6.692;2023-05-02T15:57:57;7.17;;;6.50;;
3873;SDS011;1952;50.872;6.692;2023-05-02T16:00:25;8.40;;;5.50;;
3873;SDS011;1952;50.872;6.692;2023-05-02T16:03:25;7.37;;;5.67;;
3873;SDS011;1952;50.872;6.692;2023-05-02T16:24:32;10.70;;;5.17;;
3873;SDS011;1952;50.872;6.692;2023-05-02T16:27:23;7.27;;;5.60;;
3873;SDS011;1952;50.872;6.692;2023-05-02T16:37:51;7.27;;;5.63;;
3873;SDS011;1952;50.872;6.692;2023-05-02T16:43:34;6.17;;;5.17;;
3873;SDS011;1952;50.872;6.692;2023-05-02T16:46:04;5.43;;;4.93;;
3873;SDS011;1952;50.872;6.692;2023-05-02T16:48:33;6.87;;;5.90;;
3873;SDS011;1952;50.872;6.692;2023-05-02T16:51:01;6.43;;;5.20;;
3873;SDS011;1952;50.872;6.692;2023-05-02T16:53:30;6.90;;;6.23;;
3873;SDS011;1952;50.872;6.692;2023-05-02T16:55:58;4.90;;;4.30;;
3873;SDS011;1952;50.872;6.692;2023-05-02T16:58:27;5.03;;;4.60;;
3873;SDS011;1952;50.872;6.692;2023-05-02T17:00:58;6.43;;;5.43;;
3873;SDS011;1952;50.872;6.692;2023-05-02T17:03:27;7.90;;;6.53;;
3873;SDS011;1952;50.872;6.692;2023-05-02T17:06:00;6.70;;;5.50;;
3873;SDS011;1952;50.872;6.692;2023-05-02T17:08:29;8.80;;;7.10;;
3873;SDS011;1952;50.872;6.692;2023-05-02T17:10:58;10.10;;;6.00;;
3873;SDS011;1952;50.872;6.692;2023-05-02T17:13:27;6.40;;;5.50;;
3873;SDS011;1952;50.872;6.692;2023-05-02T17:15:56;8.70;;;7.73;;
3873;SDS011;1952;50.872;6.692;2023-05-02T17:18:27;6.13;;;5.57;;
3873;SDS011;1952;50.872;6.692;2023-05-02T17:20:56;10.20;;;6.53;;
3873;SDS011;1952;50.872;6.692;2023-05-02T17:23:28;6.90;;;5.00;;
3873;SDS011;1952;50.872;6.692;2023-05-02T17:25:57;6.00;;;4.87;;
3873;SDS011;1952;50.872;6.692;2023-05-02T17:28:26;6.90;;;5.47;;
3873;SDS011;1952;50.872;6.692;2023-05-02T17:30:56;7.97;;;7.20;;
3873;SDS011;1952;50.872;6.692;2023-05-02T17:33:34;8.70;;;5.83;;
3873;SDS011;1952;50.872;6.692;2023-05-02T17:36:03;6.87;;;6.00;;
3873;SDS011;1952;50.872;6.692;2023-05-02T17:38:32;7.50;;;5.73;;
3873;SDS011;1952;50.872;6.692;2023-05-02T17:41:02;4.83;;;4.43;;
3873;SDS011;1952;50.872;6.692;2023-05-02T17:43:31;6.03;;;4.90;;
3873;SDS011;1952;50.872;6.692;2023-05-02T17:46:05;7.80;;;5.37;;
3873;SDS011;1952;50.872;6.692;2023-05-02T17:48:35;6.97;;;4.63;;
3873;SDS011;1952;50.872;6.692;2023-05-02T17:51:06;5.53;;;4.30;;
3873;SDS011;1952;50.872;6.692;2023-05-02T17:53:35;6.17;;;4.70;;
3873;SDS011;1952;50.872;6.692;2023-05-02T18:47:30;6.70;;;5.53;;
3873;SDS011;1952;50.872;6.692;2023-05-02T18:50:00;13.07;;;5.20;;
3873;SDS011;1952;50.872;6.692;2023-05-02T18:52:30;8.40;;;6.27;;
3873;SDS011;1952;50.872;6.692;2023-05-02T18:55:00;8.83;;;6.53;;
3873;SDS011;1952;50.872;6.692;2023-05-02T18:57:32;5.93;;;4.67;;
3873;SDS011;1952;50.872;6.692;2023-05-02T19:00:15;6.53;;;5.50;;
3873;SDS011;1952;50.872;6.692;2023-05-02T19:02:47;7.90;;;6.67;;
3873;SDS011;1952;50.872;6.692;2023-05-02T19:05:18;6.77;;;5.87;;
3873;SDS011;1952;50.872;6.692;2023-05-02T19:07:46;5.93;;;5.00;;
3873;SDS011;1952;50.872;6.692;2023-05-02T19:10:15;7.70;;;6.60;;
3873;SDS011;1952;50.872;6.692;2023-05-02T19:12:45;9.90;;;5.77;;
3873;SDS011;1952;50.872;6.692;2023-05-02T19:15:13;9.50;;;5.00;;
3873;SDS011;1952;50.872;6.692;2023-05-02T19:17:42;7.10;;;5.40;;
3873;SDS011;1952;50.872;6.692;2023-05-02T19:20:13;9.83;;;7.03;;